sensor_id;sensor_type;location;lat;lon;timestamp;P1;durP1;ratioP1;P2;durP2;ratioP2
18172;SDS011;9211;48.818;9.312;2022-07-24T00:00:55;14.95;;;9.43;;
18172;SDS011;9211;48.818;9.312;2022-07-24T00:03:25;13.13;;;9.77;;
18172;SDS011;9211;48.818;9.312;2022-07-24T00:05:52;12.98;;;9.63;;
18172;SDS011;9211;48.818;9.312;2022-07-24T00:08:19;13.18;;;10.00;;
18172;SDS011;9211;48.818;9.312;2022-07-24T00:10:46;14.98;;;10.32;;
18172;SDS011;9211;48.818;9.312;2022-07-24T00:13:13;12.57;;;9.65;;
18172;SDS011;9211;48.818;9.312;2022-07-24T00:15:40;13.52;;;9.48;;
18172;SDS011;9211;48.818;9.312;2022-07-24T00:18:07;12.70;;;9.93;;
18172;SDS011;9211;48.818;9.312;2022-07-24T00:20:36;13.65;;;9.90;;
18172;SDS011;9211;48.818;9.312;2022-07-24T00:23:03;14.27;;;9.68;;
18172;SDS011;9211;48.818;9.312;2022-07-24T00:25:30;14.10;;;9.60;;
18172;SDS011;9211;48.818;9.312;2022-07-24T00:27:57;15.90;;;10.30;;
18172;SDS011;9211;48.818;9.312;2022-07-24T00:30:24;15.60;;;10.10;;
18172;SDS011;9211;48.818;9.312;2022-07-24T00:32:51;14.27;;;10.05;;
18172;SDS011;9211;48.818;9.312;2022-07-24T00:35:18;14.68;;;10.13;;
18172;SDS011;9211;48.818;9.312;2022-07-24T00:37:46;13.45;;;10.15;;
18172;SDS011;9211;48.818;9.312;2022-07-24T00:40:14;13.25;;;9.75;;
18172;SDS011;9211;48.818;9.312;2022-07-24T00:42:41;15.80;;;10.15;;
18172;SDS011;9211;48.818;9.312;2022-07-24T00:45:08;12.98;;;9.60;;
18172;SDS011;9211;48.818;9.312;2022-07-24T00:47:36;13.98;;;10.23;;
18172;SDS011;9211;48.818;9.312;2022-07-24T00:50:03;13.88;;;9.85;;
18172;SDS011;9211;48.818;9.312;2022-07-24T00:52:31;15.97;;;10.10;;
18172;SDS011;9211;48.818;9.312;2022-07-24T00:55:00;13.37;;;9.80;;
18172;SDS011;9211;48.818;9.312;2022-07-24T00:57:27;14.38;;;10.07;;
18172;SDS011;9211;48.818;9.312;2022-07-24T00:59:54;13.95;;;10.45;;
18172;SDS011;9211;48.818;9.312;2022-07-24T01:02:21;13.90;;;10.27;;
18172;SDS011;9211;48.818;9.312;2022-07-24T01:04:48;15.10;;;10.20;;
18172;SDS011;9211;48.818;9.312;2022-07-24T01:07:16;14.15;;;10.70;;
18172;SDS011;9211;48.818;9.312;2022-07-24T01:09:43;15.02;;;10.73;;
18172;SDS011;9211;48.818;9.312;2022-07-24T01:12:12;16.45;;;11.20;;
18172;SDS011;9211;48.818;9.312;2022-07-24T01:14:39;16.38;;;11.10;;
18172;SDS011;9211;48.818;9.312;2022-07-24T01:17:06;19.60;;;11.10;;
18172;SDS011;9211;48.818;9.312;2022-07-24T01:19:33;16.60;;;11.40;;
18172;SDS011;9211;48.818;9.312;2022-07-24T01:22:02;17.73;;;11.23;;
18172;SDS011;9211;48.818;9.312;2022-07-24T01:24:29;15.00;;;10.60;;
18172;SDS011;9211;48.818;9.312;2022-07-24T01:26:56;15.05;;;11.30;;
18172;SDS011;9211;48.818;9.312;2022-07-24T01:29:23;16.00;;;11.30;;
18172;SDS011;9211;48.818;9.312;2022-07-24T01:31:50;14.17;;;11.13;;
18172;SDS011;9211;48.818;9.312;2022-07-24T01:34:17;16.38;;;11.30;;
18172;SDS011;9211;48.818;9.312;2022-07-24T01:36:45;16.52;;;11.43;;
18172;SDS011;9211;48.818;9.312;2022-07-24T01:39:13;15.65;;;11.45;;
18172;SDS011;9211;48.818;9.312;2022-07-24T01:41:40;15.83;;;11.20;;
18172;SDS011;9211;48.818;9.312;2022-07-24T01:44:07;14.82;;;11.02;;
18172;SDS011;9211;48.818;9.312;2022-07-24T01:46:34;14.63;;;10.35;;
18172;SDS011;9211;48.818;9.312;2022-07-24T01:49:01;14.38;;;10.20;;
18172;SDS011;9211;48.818;9.312;2022-07-24T01:51:28;16.35;;;10.88;;
18172;SDS011;9211;48.818;9.312;2022-07-24T01:53:55;16.20;;;11.20;;
18172;SDS011;9211;48.818;9.312;2022-07-24T01:56:24;14.57;;;10.77;;
18172;SDS011;9211;48.818;9.312;2022-07-24T01:58:51;14.75;;;10.82;;
18172;SDS011;9211;48.818;9.312;2022-07-24T02:01:18;16.98;;;11.15;;
18172;SDS011;9211;48.818;9.312;2022-07-24T02:03:44;17.30;;;10.70;;
18172;SDS011;9211;48.818;9.312;2022-07-24T02:06:12;15.25;;;10.90;;
18172;SDS011;9211;48.818;9.312;2022-07-24T02:08:39;15.57;;;10.38;;
18172;SDS011;9211;48.818;9.312;2022-07-24T02:11:06;14.57;;;10.10;;
18172;SDS011;9211;48.818;9.312;2022-07-24T02:13:34;16.15;;;10.20;;
18172;SDS011;9211;48.818;9.312;2022-07-24T02:16:01;14.93;;;10.50;;
18172;SDS011;9211;48.818;9.312;2022-07-24T02:18:29;14.63;;;10.35;;
18172;SDS011;9211;48.818;9.312;2022-07-24T02:20:56;15.40;;;10.93;;
18172;SDS011;9211;48.818;9.312;2022-07-24T02:23:23;14.85;;;10.70;;
18172;SDS011;9211;48.818;9.312;2022-07-24T02:25:50;15.43;;;10.65;;
18172;SDS011;9211;48.818;9.312;2022-07-24T02:28:17;15.57;;;10.60;;
18172;SDS011;9211;48.818;9.312;2022-07-24T02:30:46;16.35;;;11.40;;
18172;SDS011;9211;48.818;9.312;2022-07-24T02:33:13;15.98;;;10.75;;
18172;SDS011;9211;48.818;9.312;2022-07-24T02:35:39;14.10;;;10.30;;
18172;SDS011;9211;48.818;9.312;2022-07-24T02:38:06;16.55;;;11.00;;
18172;SDS011;9211;48.818;9.312;2022-07-24T02:40:34;15.35;;;11.05;;
18172;SDS011;9211;48.818;9.312;2022-07-24T02:43:01;16.08;;;11.18;;
18172;SDS011;9211;48.818;9.312;2022-07-24T02:45:28;14.93;;;11.13;;
18172;SDS011;9211;48.818;9.312;2022-07-24T02:47:57;15.30;;;11.03;;
18172;SDS011;9211;48.818;9.312;2022-07-24T02:50:25;14.03;;;10.60;;
18172;SDS011;9211;48.818;9.312;2022-07-24T02:52:56;15.20;;;10.80;;
18172;SDS011;9211;48.818;9.312;2022-07-24T02:55:23;14.07;;;10.70;;
18172;SDS011;9211;48.818;9.312;2022-07-24T02:57:53;14.07;;;10.60;;
18172;SDS011;9211;48.818;9.312;2022-07-24T03:00:20;16.00;;;11.07;;
18172;SDS011;9211;48.818;9.312;2022-07-24T03:02:49;17.10;;;11.32;;
18172;SDS011;9211;48.818;9.312;2022-07-24T03:05:17;14.98;;;10.63;;
18172;SDS011;9211;48.818;9.312;2022-07-24T03:07:45;14.02;;;10.30;;
18172;SDS011;9211;48.818;9.312;2022-07-24T03:10:12;13.83;;;10.90;;
18172;SDS011;9211;48.818;9.312;2022-07-24T03:12:40;15.00;;;10.80;;
18172;SDS011;9211;48.818;9.312;2022-07-24T03:15:08;17.70;;;11.10;;
18172;SDS011;9211;48.818;9.312;2022-07-24T03:17:36;14.48;;;11.27;;
18172;SDS011;9211;48.818;9.312;2022-07-24T03:20:03;14.35;;;10.82;;
18172;SDS011;9211;48.818;9.312;2022-07-24T03:22:32;14.70;;;10.75;;
18172;SDS011;9211;48.818;9.312;2022-07-24T03:24:59;14.70;;;10.70;;
18172;SDS011;9211;48.818;9.312;2022-07-24T03:27:27;15.55;;;10.88;;
18172;SDS011;9211;48.818;9.312;2022-07-24T03:29:54;17.33;;;11.23;;
18172;SDS011;9211;48.818;9.312;2022-07-24T03:32:21;15.40;;;11.20;;
18172;SDS011;9211;48.818;9.312;2022-07-24T03:34:48;16.20;;;11.07;;
18172;SDS011;9211;48.818;9.312;2022-07-24T03:37:15;15.63;;;10.80;;
18172;SDS011;9211;48.818;9.312;2022-07-24T03:39:43;15.27;;;10.85;;
18172;SDS011;9211;48.818;9.312;2022-07-24T03:42:10;15.60;;;11.40;;
18172;SDS011;9211;48.818;9.312;2022-07-24T03:44:37;16.58;;;11.68;;
18172;SDS011;9211;48.818;9.312;2022-07-24T03:47:04;14.47;;;11.00;;
18172;SDS011;9211;48.818;9.312;2022-07-24T03:49:31;14.77;;;10.80;;
18172;SDS011;9211;48.818;9.312;2022-07-24T03:51:58;16.95;;;11.00;;
18172;SDS011;9211;48.818;9.312;2022-07-24T03:54:25;15.52;;;10.82;;
18172;SDS011;9211;48.818;9.312;2022-07-24T03:56:54;14.82;;;10.98;;
18172;SDS011;9211;48.818;9.312;2022-07-24T03:59:21;18.55;;;11.23;;
18172;SDS011;9211;48.818;9.312;2022-07-24T04:01:48;14.68;;;11.30;;
18172;SDS011;9211;48.818;9.312;2022-07-24T04:04:15;17.48;;;11.10;;
18172;SDS011;9211;48.818;9.312;2022-07-24T04:06:42;15.18;;;11.27;;
18172;SDS011;9211;48.818;9.312;2022-07-24T04:09:09;14.65;;;10.73;;
18172;SDS011;9211;48.818;9.312;2022-07-24T04:11:36;16.02;;;11.23;;
18172;SDS011;9211;48.818;9.312;2022-07-24T04:14:04;15.82;;;11.23;;
18172;SDS011;9211;48.818;9.312;2022-07-24T04:16:32;16.00;;;11.20;;
18172;SDS011;9211;48.818;9.312;2022-07-24T04:18:59;16.23;;;11.73;;
18172;SDS011;9211;48.818;9.312;2022-07-24T04:21:26;16.60;;;12.00;;
18172;SDS011;9211;48.818;9.312;2022-07-24T04:23:52;14.48;;;11.32;;
18172;SDS011;9211;48.818;9.312;2022-07-24T04:26:20;16.55;;;11.48;;
18172;SDS011;9211;48.818;9.312;2022-07-24T04:28:47;17.35;;;11.75;;
18172;SDS011;9211;48.818;9.312;2022-07-24T04:31:15;14.90;;;11.52;;
18172;SDS011;9211;48.818;9.312;2022-07-24T04:33:42;18.10;;;11.93;;
18172;SDS011;9211;48.818;9.312;2022-07-24T04:36:09;17.85;;;11.68;;
18172;SDS011;9211;48.818;9.312;2022-07-24T04:38:36;17.98;;;11.90;;
18172;SDS011;9211;48.818;9.312;2022-07-24T04:41:04;17.17;;;11.70;;
18172;SDS011;9211;48.818;9.312;2022-07-24T04:43:31;16.17;;;11.90;;
18172;SDS011;9211;48.818;9.312;2022-07-24T04:45:58;15.82;;;11.73;;
18172;SDS011;9211;48.818;9.312;2022-07-24T04:48:27;15.65;;;11.45;;
18172;SDS011;9211;48.818;9.312;2022-07-24T04:50:54;18.37;;;12.63;;
18172;SDS011;9211;48.818;9.312;2022-07-24T04:53:21;16.15;;;11.60;;
18172;SDS011;9211;48.818;9.312;2022-07-24T04:55:48;17.77;;;12.33;;
18172;SDS011;9211;48.818;9.312;2022-07-24T04:58:15;15.43;;;11.63;;
18172;SDS011;9211;48.818;9.312;2022-07-24T05:00:42;17.48;;;11.88;;
18172;SDS011;9211;48.818;9.312;2022-07-24T05:03:09;15.73;;;11.50;;
18172;SDS011;9211;48.818;9.312;2022-07-24T05:05:37;15.27;;;11.40;;
18172;SDS011;9211;48.818;9.312;2022-07-24T05:08:04;14.77;;;11.55;;
18172;SDS011;9211;48.818;9.312;2022-07-24T05:10:31;15.93;;;11.60;;
18172;SDS011;9211;48.818;9.312;2022-07-24T05:12:58;16.52;;;11.57;;
18172;SDS011;9211;48.818;9.312;2022-07-24T05:15:25;16.07;;;11.50;;
18172;SDS011;9211;48.818;9.312;2022-07-24T05:17:52;15.23;;;11.33;;
18172;SDS011;9211;48.818;9.312;2022-07-24T05:20:19;16.10;;;11.45;;
18172;SDS011;9211;48.818;9.312;2022-07-24T05:22:48;15.70;;;11.55;;
18172;SDS011;9211;48.818;9.312;2022-07-24T05:25:15;17.40;;;12.03;;
18172;SDS011;9211;48.818;9.312;2022-07-24T05:27:42;14.35;;;11.10;;
18172;SDS011;9211;48.818;9.312;2022-07-24T05:30:09;16.67;;;11.35;;
18172;SDS011;9211;48.818;9.312;2022-07-24T05:32:37;15.82;;;11.40;;
18172;SDS011;9211;48.818;9.312;2022-07-24T05:35:04;16.15;;;11.00;;
18172;SDS011;9211;48.818;9.312;2022-07-24T05:37:32;18.90;;;12.07;;
18172;SDS011;9211;48.818;9.312;2022-07-24T05:40:00;16.38;;;11.45;;
18172;SDS011;9211;48.818;9.312;2022-07-24T05:42:27;15.48;;;10.70;;
18172;SDS011;9211;48.818;9.312;2022-07-24T05:44:54;16.75;;;11.27;;
18172;SDS011;9211;48.818;9.312;2022-07-24T05:47:21;16.15;;;11.18;;
18172;SDS011;9211;48.818;9.312;2022-07-24T05:49:48;14.53;;;10.70;;
18172;SDS011;9211;48.818;9.312;2022-07-24T05:52:15;15.20;;;10.70;;
18172;SDS011;9211;48.818;9.312;2022-07-24T05:54:42;15.55;;;11.30;;
18172;SDS011;9211;48.818;9.312;2022-07-24T05:57:10;14.63;;;11.18;;
18172;SDS011;9211;48.818;9.312;2022-07-24T05:59:37;15.15;;;11.10;;
18172;SDS011;9211;48.818;9.312;2022-07-24T06:02:04;13.65;;;11.05;;
18172;SDS011;9211;48.818;9.312;2022-07-24T06:04:31;15.35;;;11.20;;
18172;SDS011;9211;48.818;9.312;2022-07-24T06:07:00;15.73;;;11.40;;
18172;SDS011;9211;48.818;9.312;2022-07-24T06:09:27;14.45;;;10.98;;
18172;SDS011;9211;48.818;9.312;2022-07-24T06:11:54;15.40;;;11.17;;
18172;SDS011;9211;48.818;9.312;2022-07-24T06:14:23;14.20;;;10.38;;
18172;SDS011;9211;48.818;9.312;2022-07-24T06:16:50;15.73;;;10.97;;
18172;SDS011;9211;48.818;9.312;2022-07-24T06:19:17;14.77;;;10.70;;
18172;SDS011;9211;48.818;9.312;2022-07-24T06:21:44;15.32;;;10.63;;
18172;SDS011;9211;48.818;9.312;2022-07-24T06:24:11;16.55;;;10.93;;
18172;SDS011;9211;48.818;9.312;2022-07-24T06:26:38;16.73;;;11.05;;
18172;SDS011;9211;48.818;9.312;2022-07-24T06:29:05;16.60;;;10.87;;
18172;SDS011;9211;48.818;9.312;2022-07-24T06:31:33;15.52;;;10.57;;
18172;SDS011;9211;48.818;9.312;2022-07-24T06:34:00;14.93;;;10.53;;
18172;SDS011;9211;48.818;9.312;2022-07-24T06:36:27;13.77;;;10.87;;
18172;SDS011;9211;48.818;9.312;2022-07-24T06:38:54;15.67;;;11.00;;
18172;SDS011;9211;48.818;9.312;2022-07-24T06:41:21;14.43;;;10.55;;
18172;SDS011;9211;48.818;9.312;2022-07-24T06:43:48;13.82;;;10.55;;
18172;SDS011;9211;48.818;9.312;2022-07-24T06:46:15;13.88;;;9.75;;
18172;SDS011;9211;48.818;9.312;2022-07-24T06:48:43;12.82;;;9.18;;
18172;SDS011;9211;48.818;9.312;2022-07-24T06:51:10;14.50;;;10.77;;
18172;SDS011;9211;48.818;9.312;2022-07-24T06:53:37;14.47;;;10.50;;
18172;SDS011;9211;48.818;9.312;2022-07-24T06:56:06;14.57;;;9.60;;
18172;SDS011;9211;48.818;9.312;2022-07-24T06:58:33;12.23;;;9.85;;
18172;SDS011;9211;48.818;9.312;2022-07-24T07:01:00;11.60;;;9.10;;
18172;SDS011;9211;48.818;9.312;2022-07-24T07:03:27;11.93;;;9.27;;
18172;SDS011;9211;48.818;9.312;2022-07-24T07:05:55;13.15;;;9.68;;
18172;SDS011;9211;48.818;9.312;2022-07-24T07:08:22;12.43;;;9.70;;
18172;SDS011;9211;48.818;9.312;2022-07-24T07:10:49;12.70;;;10.13;;
18172;SDS011;9211;48.818;9.312;2022-07-24T07:13:16;11.90;;;9.50;;
18172;SDS011;9211;48.818;9.312;2022-07-24T07:15:43;14.20;;;9.30;;
18172;SDS011;9211;48.818;9.312;2022-07-24T07:18:10;11.93;;;9.02;;
18172;SDS011;9211;48.818;9.312;2022-07-24T07:20:38;14.80;;;9.63;;
18172;SDS011;9211;48.818;9.312;2022-07-24T07:23:06;19.25;;;13.75;;
18172;SDS011;9211;48.818;9.312;2022-07-24T07:25:33;22.10;;;15.25;;
18172;SDS011;9211;48.818;9.312;2022-07-24T07:28:01;14.52;;;10.65;;
18172;SDS011;9211;48.818;9.312;2022-07-24T07:30:28;11.82;;;9.35;;
18172;SDS011;9211;48.818;9.312;2022-07-24T07:32:55;13.20;;;9.95;;
18172;SDS011;9211;48.818;9.312;2022-07-24T07:35:22;16.65;;;11.52;;
18172;SDS011;9211;48.818;9.312;2022-07-24T07:37:49;16.17;;;11.32;;
18172;SDS011;9211;48.818;9.312;2022-07-24T07:40:17;14.48;;;11.15;;
18172;SDS011;9211;48.818;9.312;2022-07-24T07:42:44;15.10;;;10.80;;
18172;SDS011;9211;48.818;9.312;2022-07-24T07:45:11;12.73;;;9.52;;
18172;SDS011;9211;48.818;9.312;2022-07-24T07:47:38;12.50;;;9.20;;
18172;SDS011;9211;48.818;9.312;2022-07-24T07:50:06;12.73;;;9.02;;
18172;SDS011;9211;48.818;9.312;2022-07-24T07:52:34;11.33;;;8.40;;
18172;SDS011;9211;48.818;9.312;2022-07-24T07:55:01;13.43;;;8.20;;
18172;SDS011;9211;48.818;9.312;2022-07-24T07:57:29;16.73;;;11.93;;
18172;SDS011;9211;48.818;9.312;2022-07-24T07:59:56;19.67;;;14.23;;
18172;SDS011;9211;48.818;9.312;2022-07-24T08:02:24;36.50;;;22.70;;
18172;SDS011;9211;48.818;9.312;2022-07-24T08:04:50;22.45;;;15.05;;
18172;SDS011;9211;48.818;9.312;2022-07-24T08:07:17;14.77;;;10.45;;
18172;SDS011;9211;48.818;9.312;2022-07-24T08:09:44;10.95;;;7.80;;
18172;SDS011;9211;48.818;9.312;2022-07-24T08:12:11;9.40;;;7.33;;
18172;SDS011;9211;48.818;9.312;2022-07-24T08:14:40;9.50;;;7.40;;
18172;SDS011;9211;48.818;9.312;2022-07-24T08:17:07;10.23;;;7.45;;
18172;SDS011;9211;48.818;9.312;2022-07-24T08:19:34;8.80;;;7.05;;
18172;SDS011;9211;48.818;9.312;2022-07-24T08:22:01;9.20;;;7.03;;
18172;SDS011;9211;48.818;9.312;2022-07-24T08:24:29;9.02;;;6.97;;
18172;SDS011;9211;48.818;9.312;2022-07-24T08:26:57;8.50;;;6.80;;
18172;SDS011;9211;48.818;9.312;2022-07-24T08:29:25;8.03;;;6.60;;
18172;SDS011;9211;48.818;9.312;2022-07-24T08:31:55;10.13;;;7.70;;
18172;SDS011;9211;48.818;9.312;2022-07-24T08:34:22;10.52;;;7.85;;
18172;SDS011;9211;48.818;9.312;2022-07-24T08:36:49;9.30;;;6.90;;
18172;SDS011;9211;48.818;9.312;2022-07-24T08:39:17;9.50;;;6.97;;
18172;SDS011;9211;48.818;9.312;2022-07-24T08:41:44;7.82;;;6.57;;
18172;SDS011;9211;48.818;9.312;2022-07-24T08:44:11;8.45;;;6.93;;
18172;SDS011;9211;48.818;9.312;2022-07-24T08:46:39;11.80;;;7.67;;
18172;SDS011;9211;48.818;9.312;2022-07-24T08:49:09;24.55;;;10.32;;
18172;SDS011;9211;48.818;9.312;2022-07-24T08:51:38;11.40;;;7.55;;
18172;SDS011;9211;48.818;9.312;2022-07-24T08:54:06;13.00;;;7.82;;
18172;SDS011;9211;48.818;9.312;2022-07-24T08:56:34;10.45;;;6.70;;
18172;SDS011;9211;48.818;9.312;2022-07-24T08:59:04;8.48;;;6.57;;
18172;SDS011;9211;48.818;9.312;2022-07-24T09:01:31;9.13;;;6.40;;
18172;SDS011;9211;48.818;9.312;2022-07-24T09:03:58;8.32;;;6.50;;
18172;SDS011;9211;48.818;9.312;2022-07-24T09:06:26;9.38;;;6.90;;
18172;SDS011;9211;48.818;9.312;2022-07-24T09:08:57;8.95;;;6.78;;
18172;SDS011;9211;48.818;9.312;2022-07-24T09:11:25;7.70;;;6.47;;
18172;SDS011;9211;48.818;9.312;2022-07-24T09:14:00;8.23;;;6.68;;
18172;SDS011;9211;48.818;9.312;2022-07-24T09:16:45;8.13;;;6.30;;
18172;SDS011;9211;48.818;9.312;2022-07-24T09:19:12;9.68;;;6.70;;
18172;SDS011;9211;48.818;9.312;2022-07-24T09:21:42;8.52;;;6.47;;
18172;SDS011;9211;48.818;9.312;2022-07-24T09:24:14;8.43;;;6.25;;
18172;SDS011;9211;48.818;9.312;2022-07-24T09:26:43;7.97;;;6.32;;
18172;SDS011;9211;48.818;9.312;2022-07-24T09:29:12;8.82;;;6.50;;
18172;SDS011;9211;48.818;9.312;2022-07-24T09:31:53;9.55;;;6.85;;
18172;SDS011;9211;48.818;9.312;2022-07-24T09:34:21;6.83;;;6.10;;
18172;SDS011;9211;48.818;9.312;2022-07-24T09:37:00;9.98;;;6.15;;
18172;SDS011;9211;48.818;9.312;2022-07-24T09:39:28;9.32;;;6.50;;
18172;SDS011;9211;48.818;9.312;2022-07-24T09:41:58;9.10;;;6.30;;
18172;SDS011;9211;48.818;9.312;2022-07-24T09:44:26;8.20;;;6.15;;
18172;SDS011;9211;48.818;9.312;2022-07-24T09:46:55;7.70;;;6.22;;
18172;SDS011;9211;48.818;9.312;2022-07-24T09:49:24;8.07;;;6.38;;
18172;SDS011;9211;48.818;9.312;2022-07-24T09:52:07;8.48;;;6.40;;
18172;SDS011;9211;48.818;9.312;2022-07-24T09:54:37;8.05;;;6.32;;
18172;SDS011;9211;48.818;9.312;2022-07-24T09:57:16;8.30;;;6.27;;
18172;SDS011;9211;48.818;9.312;2022-07-24T09:59:46;8.70;;;6.43;;
18172;SDS011;9211;48.818;9.312;2022-07-24T10:02:15;8.80;;;6.47;;
18172;SDS011;9211;48.818;9.312;2022-07-24T10:04:44;11.10;;;7.75;;
18172;SDS011;9211;48.818;9.312;2022-07-24T10:07:15;8.38;;;6.30;;
18172;SDS011;9211;48.818;9.312;2022-07-24T10:09:44;7.72;;;6.07;;
18172;SDS011;9211;48.818;9.312;2022-07-24T10:12:13;7.60;;;5.90;;
18172;SDS011;9211;48.818;9.312;2022-07-24T10:14:43;8.73;;;6.45;;
18172;SDS011;9211;48.818;9.312;2022-07-24T10:17:12;7.43;;;5.82;;
18172;SDS011;9211;48.818;9.312;2022-07-24T10:19:40;8.10;;;5.85;;
18172;SDS011;9211;48.818;9.312;2022-07-24T10:22:11;6.95;;;5.70;;
18172;SDS011;9211;48.818;9.312;2022-07-24T10:24:46;7.53;;;5.75;;
18172;SDS011;9211;48.818;9.312;2022-07-24T10:27:22;7.18;;;5.55;;
18172;SDS011;9211;48.818;9.312;2022-07-24T10:29:52;7.55;;;5.63;;
18172;SDS011;9211;48.818;9.312;2022-07-24T10:32:20;7.18;;;5.60;;
18172;SDS011;9211;48.818;9.312;2022-07-24T10:34:50;6.80;;;5.30;;
18172;SDS011;9211;48.818;9.312;2022-07-24T10:37:26;7.67;;;5.60;;
18172;SDS011;9211;48.818;9.312;2022-07-24T10:40:02;7.13;;;5.53;;
18172;SDS011;9211;48.818;9.312;2022-07-24T10:45:36;7.30;;;5.60;;
18172;SDS011;9211;48.818;9.312;2022-07-24T10:51:06;6.93;;;5.43;;
18172;SDS011;9211;48.818;9.312;2022-07-24T10:53:49;7.45;;;5.20;;
18172;SDS011;9211;48.818;9.312;2022-07-24T10:56:20;7.00;;;5.23;;
18172;SDS011;9211;48.818;9.312;2022-07-24T10:58:56;8.15;;;5.43;;
18172;SDS011;9211;48.818;9.312;2022-07-24T11:04:25;6.93;;;5.40;;
18172;SDS011;9211;48.818;9.312;2022-07-24T11:06:55;6.43;;;5.25;;
18172;SDS011;9211;48.818;9.312;2022-07-24T11:09:27;13.17;;;9.83;;
18172;SDS011;9211;48.818;9.312;2022-07-24T11:12:06;19.70;;;13.15;;
18172;SDS011;9211;48.818;9.312;2022-07-24T11:14:49;18.67;;;13.25;;
18172;SDS011;9211;48.818;9.312;2022-07-24T11:17:35;10.63;;;8.00;;
18172;SDS011;9211;48.818;9.312;2022-07-24T11:20:04;7.13;;;5.90;;
18172;SDS011;9211;48.818;9.312;2022-07-24T11:22:40;6.65;;;5.60;;
18172;SDS011;9211;48.818;9.312;2022-07-24T11:25:10;8.02;;;5.80;;
18172;SDS011;9211;48.818;9.312;2022-07-24T11:27:44;8.25;;;5.72;;
18172;SDS011;9211;48.818;9.312;2022-07-24T11:30:13;7.05;;;5.60;;
18172;SDS011;9211;48.818;9.312;2022-07-24T11:32:41;7.07;;;5.38;;
18172;SDS011;9211;48.818;9.312;2022-07-24T11:35:09;8.07;;;6.00;;
18172;SDS011;9211;48.818;9.312;2022-07-24T11:37:36;6.75;;;5.60;;
18172;SDS011;9211;48.818;9.312;2022-07-24T11:40:05;7.80;;;5.27;;
18172;SDS011;9211;48.818;9.312;2022-07-24T11:42:33;8.13;;;5.70;;
18172;SDS011;9211;48.818;9.312;2022-07-24T11:45:02;8.20;;;5.50;;
18172;SDS011;9211;48.818;9.312;2022-07-24T11:47:30;9.02;;;5.72;;
18172;SDS011;9211;48.818;9.312;2022-07-24T11:49:58;7.63;;;5.30;;
18172;SDS011;9211;48.818;9.312;2022-07-24T11:52:29;7.75;;;5.15;;
18172;SDS011;9211;48.818;9.312;2022-07-24T11:54:58;6.88;;;5.22;;
18172;SDS011;9211;48.818;9.312;2022-07-24T11:57:27;6.88;;;5.30;;
18172;SDS011;9211;48.818;9.312;2022-07-24T11:59:56;6.22;;;5.28;;
18172;SDS011;9211;48.818;9.312;2022-07-24T12:02:24;6.88;;;5.38;;
18172;SDS011;9211;48.818;9.312;2022-07-24T12:04:52;6.90;;;5.60;;
18172;SDS011;9211;48.818;9.312;2022-07-24T12:07:20;5.85;;;5.00;;
18172;SDS011;9211;48.818;9.312;2022-07-24T12:09:48;6.25;;;5.03;;
18172;SDS011;9211;48.818;9.312;2022-07-24T12:12:17;5.73;;;4.77;;
18172;SDS011;9211;48.818;9.312;2022-07-24T12:14:50;7.13;;;5.30;;
18172;SDS011;9211;48.818;9.312;2022-07-24T12:17:18;6.07;;;5.13;;
18172;SDS011;9211;48.818;9.312;2022-07-24T12:19:54;7.10;;;4.93;;
18172;SDS011;9211;48.818;9.312;2022-07-24T12:22:22;6.78;;;5.30;;
18172;SDS011;9211;48.818;9.312;2022-07-24T12:24:51;6.50;;;5.28;;
18172;SDS011;9211;48.818;9.312;2022-07-24T12:27:32;5.55;;;4.80;;
18172;SDS011;9211;48.818;9.312;2022-07-24T12:30:01;5.57;;;4.82;;
18172;SDS011;9211;48.818;9.312;2022-07-24T12:32:29;6.60;;;5.00;;
18172;SDS011;9211;48.818;9.312;2022-07-24T12:34:57;6.10;;;5.13;;
18172;SDS011;9211;48.818;9.312;2022-07-24T12:37:24;6.93;;;5.50;;
18172;SDS011;9211;48.818;9.312;2022-07-24T12:39:52;6.85;;;5.20;;
18172;SDS011;9211;48.818;9.312;2022-07-24T12:42:28;6.70;;;5.00;;
18172;SDS011;9211;48.818;9.312;2022-07-24T12:45:05;6.38;;;4.90;;
18172;SDS011;9211;48.818;9.312;2022-07-24T12:47:35;6.35;;;5.22;;
18172;SDS011;9211;48.818;9.312;2022-07-24T12:50:18;5.50;;;4.90;;
18172;SDS011;9211;48.818;9.312;2022-07-24T12:52:48;6.38;;;5.20;;
18172;SDS011;9211;48.818;9.312;2022-07-24T12:55:20;6.90;;;4.90;;
18172;SDS011;9211;48.818;9.312;2022-07-24T12:57:47;6.72;;;5.07;;
18172;SDS011;9211;48.818;9.312;2022-07-24T13:00:25;6.43;;;5.20;;
18172;SDS011;9211;48.818;9.312;2022-07-24T13:02:52;5.30;;;4.80;;
18172;SDS011;9211;48.818;9.312;2022-07-24T13:08:06;6.65;;;5.30;;
18172;SDS011;9211;48.818;9.312;2022-07-24T13:10:34;6.63;;;5.00;;
18172;SDS011;9211;48.818;9.312;2022-07-24T13:13:01;5.95;;;4.95;;
18172;SDS011;9211;48.818;9.312;2022-07-24T13:15:29;6.20;;;4.83;;
18172;SDS011;9211;48.818;9.312;2022-07-24T13:17:56;7.55;;;5.22;;
18172;SDS011;9211;48.818;9.312;2022-07-24T13:20:23;6.57;;;5.38;;
18172;SDS011;9211;48.818;9.312;2022-07-24T13:22:51;8.98;;;5.20;;
18172;SDS011;9211;48.818;9.312;2022-07-24T13:25:18;7.03;;;5.50;;
18172;SDS011;9211;48.818;9.312;2022-07-24T13:27:45;7.40;;;5.10;;
18172;SDS011;9211;48.818;9.312;2022-07-24T13:30:13;6.95;;;5.30;;
18172;SDS011;9211;48.818;9.312;2022-07-24T13:32:40;6.80;;;5.10;;
18172;SDS011;9211;48.818;9.312;2022-07-24T13:35:08;6.25;;;5.13;;
18172;SDS011;9211;48.818;9.312;2022-07-24T13:37:35;6.18;;;4.95;;
18172;SDS011;9211;48.818;9.312;2022-07-24T13:40:05;7.05;;;5.20;;
18172;SDS011;9211;48.818;9.312;2022-07-24T13:42:36;6.13;;;5.00;;
18172;SDS011;9211;48.818;9.312;2022-07-24T13:45:05;7.63;;;5.30;;
18172;SDS011;9211;48.818;9.312;2022-07-24T13:47:33;6.45;;;5.43;;
18172;SDS011;9211;48.818;9.312;2022-07-24T13:50:01;7.47;;;5.40;;
18172;SDS011;9211;48.818;9.312;2022-07-24T13:52:28;5.82;;;5.22;;
18172;SDS011;9211;48.818;9.312;2022-07-24T13:54:55;6.88;;;4.90;;
18172;SDS011;9211;48.818;9.312;2022-07-24T13:57:23;6.00;;;4.93;;
18172;SDS011;9211;48.818;9.312;2022-07-24T13:59:50;6.53;;;5.28;;
18172;SDS011;9211;48.818;9.312;2022-07-24T14:02:17;7.45;;;5.10;;
18172;SDS011;9211;48.818;9.312;2022-07-24T14:04:45;7.38;;;5.35;;
18172;SDS011;9211;48.818;9.312;2022-07-24T14:07:12;6.63;;;5.03;;
18172;SDS011;9211;48.818;9.312;2022-07-24T14:09:39;6.30;;;5.03;;
18172;SDS011;9211;48.818;9.312;2022-07-24T14:12:06;6.60;;;4.93;;
18172;SDS011;9211;48.818;9.312;2022-07-24T14:14:35;8.05;;;6.38;;
18172;SDS011;9211;48.818;9.312;2022-07-24T14:17:02;7.82;;;6.20;;
18172;SDS011;9211;48.818;9.312;2022-07-24T14:19:29;7.05;;;5.00;;
18172;SDS011;9211;48.818;9.312;2022-07-24T14:21:56;6.38;;;5.03;;
18172;SDS011;9211;48.818;9.312;2022-07-24T14:24:23;5.80;;;4.50;;
18172;SDS011;9211;48.818;9.312;2022-07-24T14:26:50;5.55;;;4.72;;
18172;SDS011;9211;48.818;9.312;2022-07-24T14:29:17;5.72;;;4.82;;
18172;SDS011;9211;48.818;9.312;2022-07-24T14:31:46;5.40;;;4.60;;
18172;SDS011;9211;48.818;9.312;2022-07-24T14:34:13;5.27;;;4.53;;
18172;SDS011;9211;48.818;9.312;2022-07-24T14:36:40;5.45;;;4.70;;
18172;SDS011;9211;48.818;9.312;2022-07-24T14:39:07;5.72;;;4.75;;
18172;SDS011;9211;48.818;9.312;2022-07-24T14:41:34;5.53;;;4.60;;
18172;SDS011;9211;48.818;9.312;2022-07-24T14:44:02;6.85;;;4.78;;
18172;SDS011;9211;48.818;9.312;2022-07-24T14:46:29;7.15;;;4.78;;
18172;SDS011;9211;48.818;9.312;2022-07-24T14:48:57;5.20;;;4.70;;
18172;SDS011;9211;48.818;9.312;2022-07-24T14:51:24;6.55;;;4.40;;
18172;SDS011;9211;48.818;9.312;2022-07-24T14:53:51;5.88;;;4.72;;
18172;SDS011;9211;48.818;9.312;2022-07-24T14:56:18;6.38;;;4.68;;
18172;SDS011;9211;48.818;9.312;2022-07-24T14:58:45;5.80;;;4.40;;
18172;SDS011;9211;48.818;9.312;2022-07-24T15:01:12;5.95;;;4.70;;
18172;SDS011;9211;48.818;9.312;2022-07-24T15:03:40;5.30;;;4.70;;
18172;SDS011;9211;48.818;9.312;2022-07-24T15:06:09;6.37;;;5.10;;